Time;durP1;ratioP1;P1;durP2;ratioP2;P2;SDS_P1;SDS_P2;PMS_P1;PMS_P2;Temp;Humidity;BMP_temperature;BMP_pressure;BME280_temperature;BME280_humidity;BME280_pressure;Samples;Min_cycle;Max_cycle;Signal;HPM_P1;HPM_P2
2023/04/29 00:06:01;;;;;;;25.23;16.48;;;10.90;99.90;;;;;;6260940;22;20029;-94
2023/04/29 00:11:43;;;;;;;25.90;16.85;;;10.80;99.90;;;;;;6258862;22;20030;-92
2023/04/29 00:14:46;;;;;;;27.80;17.35;;;10.80;99.90;;;;;;6255691;22;20008;-93
2023/04/29 00:41:27;;;;;;;27.73;16.60;;;10.40;99.90;;;;;;6274577;22;20047;-92
2023/04/29 00:43:53;;;;;;;22.05;16.25;;;10.40;99.90;;;;;;6265526;22;20055;-92
2023/04/29 04:01:34;;;;;;;26.05;16.08;;;9.50;99.90;;;;;;6287497;22;20058;-94
2023/04/29 04:04:22;;;;;;;26.65;16.00;;;9.50;99.90;;;;;;6243218;22;20110;-93
2023/04/29 04:10:02;;;;;;;23.85;14.82;;;9.50;99.90;;;;;;6231900;23;20107;-93
2023/04/29 06:13:14;;;;;;;22.38;20.92;;;23.30;99.90;;;;;;6222012;23;19923;-88
2023/04/29 06:15:40;;;;;;;22.40;20.98;;;23.30;99.90;;;;;;6168284;23;20009;-91
2023/04/29 06:18:06;;;;;;;21.88;20.48;;;24.10;99.90;;;;;;6168655;23;20001;-91
2023/04/29 06:20:33;;;;;;;22.42;20.80;;;23.30;99.90;;;;;;6168646;23;20055;-88
2023/04/29 06:22:59;;;;;;;21.98;20.52;;;23.20;99.90;;;;;;6169565;23;20453;-89
2023/04/29 06:25:25;;;;;;;22.27;20.77;;;22.80;99.90;;;;;;6170476;23;20019;-90
2023/04/29 06:27:57;;;;;;;22.55;21.25;;;22.30;99.90;;;;;;6171303;23;20060;-93
2023/04/29 06:30:26;;;;;;;22.15;20.60;;;22.80;99.90;;;;;;6171693;23;20009;-91
2023/04/29 06:32:54;;;;;;;22.48;20.98;;;22.70;99.90;;;;;;6169275;23;20001;-90
2023/04/29 06:35:21;;;;;;;22.33;20.77;;;23.30;99.90;;;;;;6171411;23;20319;-91
2023/04/29 06:37:47;;;;;;;22.67;20.95;;;23.50;99.90;;;;;;6192676;23;20338;-87
2023/04/29 06:40:49;;;;;;;21.83;20.52;;;23.80;99.90;;;;;;6125085;23;20085;-84
2023/04/29 06:43:50;;;;;;;22.40;21.10;;;23.60;99.90;;;;;;6197417;23;20114;-82
2023/04/29 06:46:38;;;;;;;21.92;20.55;;;23.90;99.90;;;;;;6216603;23;20023;-84
2023/04/29 06:49:28;;;;;;;22.50;21.17;;;24.20;99.90;;;;;;6195019;23;20068;-83
2023/04/29 06:51:54;;;;;;;23.88;22.27;;;23.90;99.90;;;;;;6189702;23;20098;-84
2023/04/29 06:54:20;;;;;;;23.48;22.08;;;23.90;99.90;;;;;;6165329;23;20000;-83
2023/04/29 06:56:50;;;;;;;23.25;21.52;;;24.10;99.90;;;;;;6189656;23;20039;-82
2023/04/29 06:59:17;;;;;;;23.77;22.17;;;23.80;99.90;;;;;;6165208;23;20004;-83
2023/04/29 07:01:44;;;;;;;23.98;22.58;;;23.50;99.90;;;;;;6189995;23;20004;-83
2023/04/29 07:04:11;;;;;;;23.02;21.73;;;24.00;99.90;;;;;;6164797;23;20009;-83
2023/04/29 07:06:38;;;;;;;24.88;23.08;;;24.20;99.90;;;;;;6195183;23;20035;-90
2023/04/29 07:09:06;;;;;;;24.67;23.02;;;24.40;99.90;;;;;;6167040;23;20005;-90
2023/04/29 07:11:32;;;;;;;24.58;22.70;;;24.30;99.90;;;;;;6175334;23;20020;-88
2023/04/29 07:13:58;;;;;;;24.85;23.30;;;24.40;99.90;;;;;;6199311;23;20012;-91
2023/04/29 07:16:29;;;;;;;25.60;23.85;;;24.30;99.90;;;;;;6199391;23;20035;-91
2023/04/29 07:18:56;;;;;;;27.23;25.13;;;24.30;99.90;;;;;;6197152;23;20466;-91
2023/04/29 07:21:22;;;;;;;24.75;23.15;;;24.50;99.90;;;;;;6197126;23;20000;-92
2023/04/29 07:23:49;;;;;;;24.40;22.85;;;24.20;99.90;;;;;;6197067;23;20015;-91
2023/04/29 07:26:16;;;;;;;25.90;23.40;;;24.30;99.90;;;;;;6196572;23;20014;-92
2023/04/29 07:28:45;;;;;;;25.45;23.65;;;24.90;99.90;;;;;;6199170;23;20004;-87
2023/04/29 07:31:13;;;;;;;24.33;22.77;;;25.10;99.90;;;;;;6198168;23;20442;-91
2023/04/29 07:33:45;;;;;;;24.10;22.65;;;24.90;99.90;;;;;;6247816;23;20077;-89
2023/04/29 07:36:12;;;;;;;24.30;22.80;;;24.60;99.90;;;;;;6195650;23;20017;-85
2023/04/29 07:38:43;;;;;;;24.45;22.85;;;25.20;99.90;;;;;;6222737;23;20054;-91
2023/04/29 07:41:09;;;;;;;24.92;23.33;;;25.20;99.90;;;;;;6197950;23;20012;-92
2023/04/29 08:50:35;;;;;;;24.30;22.70;;;25.90;99.90;;;;;;6283506;22;20034;-94
2023/04/29 09:10:00;;;;;;;;;;;;;;;;;;;;;
2023/04/29 09:35:14;;;;;;;24.17;22.70;;;24.70;99.90;;;;;;6279058;22;20054;-94
2023/04/29 11:13:48;;;;;;;24.75;23.13;;;26.20;99.90;;;;;;6290237;22;20015;-95
2023/04/29 11:17:10;;;;;;;;;;;;;;;;;;;;;
2023/04/29 11:42:51;;;;;;;25.50;23.65;;;26.30;99.40;;;;;;6270645;22;20310;-94
2023/04/29 11:45:20;;;;;;;24.83;23.33;;;26.40;99.80;;;;;;6251979;22;20010;-93
2023/04/29 11:47:48;;;;;;;25.05;23.45;;;26.40;99.10;;;;;;6227536;22;20054;-93
2023/04/29 11:50:19;;;;;;;24.85;23.38;;;25.90;99.00;;;;;;6252211;22;20015;-93
2023/04/29 11:53:00;;;;;;;25.05;23.45;;;25.70;99.90;;;;;;6252075;22;20011;-94
2023/04/29 11:55:27;;;;;;;24.48;23.08;;;25.70;99.60;;;;;;6252958;22;20003;-95
2023/04/29 11:57:56;;;;;;;25.02;23.50;;;25.90;98.50;;;;;;6227115;22;20011;-93
2023/04/29 12:00:46;;;;;;;25.38;23.80;;;26.10;98.80;;;;;;6228987;22;20437;-94
2023/04/29 12:04:04;;;;;;;24.88;23.45;;;26.30;98.10;;;;;;6259325;22;20015;-94
2023/04/29 12:06:44;;;;;;;25.20;23.70;;;26.40;97.90;;;;;;6151925;23;20037;-92
2023/04/29 12:09:21;;;;;;;25.42;23.92;;;26.40;97.60;;;;;;6131543;23;20092;-94
2023/04/29 12:12:44;;;;;;;24.92;23.42;;;26.50;98.10;;;;;;6136264;23;20036;-95
2023/04/29 12:15:32;;;;;;;24.10;22.77;;;25.90;99.90;;;;;;6131286;23;20010;-93
2023/04/29 12:25:21;;;;;;;23.92;22.40;;;25.50;99.90;;;;;;6157752;23;20006;-94
2023/04/29 12:27:49;;;;;;;24.02;22.60;;;25.90;99.90;;;;;;6050059;23;20018;-92
2023/04/29 12:30:22;;;;;;;23.27;21.80;;;26.10;99.00;;;;;;6049911;23;19999;-92
2023/04/29 12:32:57;;;;;;;23.38;21.90;;;25.30;99.90;;;;;;6098853;23;20018;-94
2023/04/29 12:35:44;;;;;;;22.90;21.60;;;24.80;99.90;;;;;;6076855;23;20010;-93
2023/04/29 12:38:53;;;;;;;22.42;20.95;;;24.80;99.90;;;;;;6049211;23;20010;-93
2023/04/29 12:41:41;;;;;;;21.40;20.08;;;24.40;99.90;;;;;;5919858;24;20343;-92
2023/04/29 12:44:18;;;;;;;21.08;19.77;;;24.30;99.90;;;;;;5933984;24;20013;-92
2023/04/29 12:49:37;;;;;;;21.40;20.10;;;24.40;99.90;;;;;;6260040;22;20028;-94
2023/04/29 12:52:15;;;;;;;21.58;20.38;;;24.70;99.90;;;;;;6197021;23;20437;-92
2023/04/29 12:55:12;;;;;;;20.80;19.60;;;24.80;99.90;;;;;;6196250;23;20142;-92
2023/04/29 12:57:42;;;;;;;21.80;20.35;;;24.30;99.90;;;;;;6220886;23;20004;-92
2023/04/29 13:00:10;;;;;;;21.27;19.90;;;24.20;99.90;;;;;;6224176;23;20095;-94
2023/04/29 13:03:10;;;;;;;21.65;19.98;;;24.20;99.90;;;;;;6224774;23;20460;-94
2023/04/29 13:05:53;;;;;;;20.58;19.30;;;24.30;99.90;;;;;;6180310;22;20070;-93
2023/04/29 13:08:29;;;;;;;20.20;18.98;;;24.30;99.90;;;;;;6234510;22;20008;-94
2023/04/29 13:11:31;;;;;;;19.75;18.58;;;24.30;99.90;;;;;;6236109;22;20072;-92
2023/04/29 13:13:58;;;;;;;20.58;19.08;;;24.30;99.90;;;;;;6227813;22;20003;-94
2023/04/29 13:16:25;;;;;;;19.70;18.40;;;23.60;99.90;;;;;;6196835;23;20087;-92
2023/04/29 13:18:51;;;;;;;19.48;18.20;;;23.90;99.90;;;;;;6221413;23;20027;-92
2023/04/29 13:21:19;;;;;;;19.92;18.25;;;23.90;99.90;;;;;;6196408;23;20008;-92
2023/04/29 13:23:47;;;;;;;19.23;18.15;;;23.80;99.90;;;;;;6221267;23;20040;-94
2023/04/29 13:26:14;;;;;;;20.15;18.85;;;23.80;99.90;;;;;;6195916;23;20004;-95
2023/04/29 13:28:42;;;;;;;20.10;18.90;;;24.00;99.90;;;;;;6196006;23;20035;-93
2023/04/29 13:31:08;;;;;;;20.50;19.08;;;24.30;99.90;;;;;;6196929;23;20055;-94
2023/04/29 13:33:35;;;;;;;20.02;18.83;;;24.10;99.90;;;;;;6221270;23;20081;-96
2023/04/29 13:36:01;;;;;;;20.38;18.88;;;24.10;99.90;;;;;;6221037;23;20012;-94
2023/04/29 13:38:31;;;;;;;20.27;19.08;;;24.50;99.90;;;;;;6196329;23;20369;-96
2023/04/29 13:40:57;;;;;;;21.55;20.02;;;24.90;99.90;;;;;;6195958;23;20007;-93
2023/04/29 13:43:24;;;;;;;21.20;20.10;;;25.10;99.90;;;;;;6195638;23;20011;-94
2023/04/29 13:45:50;;;;;;;22.05;20.65;;;25.20;99.90;;;;;;6200033;23;20064;-95
2023/04/29 13:48:17;;;;;;;22.40;21.10;;;25.20;99.90;;;;;;6197875;23;20007;-95
2023/04/29 13:50:44;;;;;;;22.65;21.25;;;25.20;99.90;;;;;;6221144;23;20023;-95
2023/04/29 13:53:11;;;;;;;22.38;21.13;;;25.30;99.90;;;;;;6192756;23;20119;-94
2023/04/29 13:55:37;;;;;;;22.77;21.38;;;25.20;99.90;;;;;;6220848;23;20091;-94
2023/04/29 13:58:04;;;;;;;22.90;21.48;;;25.00;99.90;;;;;;6220693;23;20000;-93
2023/04/29 14:00:33;;;;;;;22.80;21.50;;;25.20;99.90;;;;;;6222734;23;20008;-94
2023/04/29 14:03:08;;;;;;;22.50;21.25;;;25.10;99.90;;;;;;6229973;23;20034;-94
2023/04/29 23:24:24;;;;;;;19.70;9.95;;;16.50;99.90;;;;;;6273616;22;20049;-92
2023/04/29 23:26:51;;;;;;;18.55;10.40;;;16.50;99.90;;;;;;6254412;22;20095;-92
2023/04/29 23:32:49;;;;;;;17.65;9.65;;;16.50;99.90;;;;;;6310280;22;20076;-93
2023/04/29 23:35:43;;;;;;;23.08;9.93;;;16.50;99.90;;;;;;6107963;23;20005;-93
